Time;durP1;ratioP1;P1;durP2;ratioP2;P2;SDS_P1;SDS_P2;PMS_P1;PMS_P2;Temp;Humidity;BMP_temperature;BMP_pressure;BME280_temperature;BME280_humidity;BME280_pressure;Samples;Min_cycle;Max_cycle;Signal;HPM_P1;HPM_P2
2023/09/19 00:00:54;;;;;;;;;;;;;;;;;;5095745;28;20109;-69
2023/09/19 00:03:22;;;;;;;;;;;;;;;;;;5113606;28;19924;-69
2023/09/19 00:05:50;;;;;;;;;;;;;;;;;;5085226;28;20011;-69
2023/09/19 00:08:22;;;;;;;;;;;;;;;;;;5112662;28;19977;-69
2023/09/19 00:10:49;;;;;;;;;;;;;;;;;;5098467;28;19925;-69
2023/09/19 00:13:16;;;;;;;;;;;;;;;;;;5079205;28;19924;-69
2023/09/19 00:15:43;;;;;;;;;;;;;;;;;;5085861;28;19936;-70
2023/09/19 00:18:10;;;;;;;;;;;;;;;;;;5105686;28;19923;-70
2023/09/19 00:20:37;;;;;;;;;;;;;;;;;;5104972;28;19954;-69
2023/09/19 00:23:08;;;;;;;;;;;;;;;;;;5103151;28;19924;-70
2023/09/19 00:25:37;;;;;;;;;;;;;;;;;;5083922;28;20422;-70
2023/09/19 00:28:04;;;;;;;;;;;;;;;;;;5091975;28;20350;-70
2023/09/19 00:30:31;;;;;;;;;;;;;;;;;;5082989;28;19962;-70
2023/09/19 00:32:58;;;;;;;;;;;;;;;;;;5099312;28;19925;-69
2023/09/19 00:35:25;;;;;;;;;;;;;;;;;;5084256;28;19928;-70
2023/09/19 00:37:52;;;;;;;;;;;;;;;;;;5089196;28;19969;-69
2023/09/19 00:40:19;;;;;;;;;;;;;;;;;;5092609;28;19986;-69
2023/09/19 00:42:46;;;;;;;;;;;;;;;;;;5107910;28;19969;-69
2023/09/19 00:45:13;;;;;;;;;;;;;;;;;;5091055;28;19923;-69
2023/09/19 00:47:41;;;;;;;;;;;;;;;;;;5092621;28;20421;-69
2023/09/19 00:50:08;;;;;;;;;;;;;;;;;;5092037;28;19977;-69
2023/09/19 00:52:36;;;;;;;;;;;;;;;;;;5102103;28;19974;-69
2023/09/19 00:55:03;;;;;;;;;;;;;;;;;;5085779;28;20379;-69
2023/09/19 00:57:33;;;;;;;;;;;;;;;;;;5083070;28;20375;-69
2023/09/19 01:00:00;;;;;;;;;;;;;;;;;;5077044;28;19970;-69
2023/09/19 01:02:28;;;;;;;;;;;;;;;;;;5094241;28;19925;-69
2023/09/19 01:04:55;;;;;;;;;;;;;;;;;;5082246;28;19924;-69
2023/09/19 01:07:22;;;;;;;;;;;;;;;;;;5076735;28;20492;-69
2023/09/19 01:09:49;;;;;;;;;;;;;;;;;;5092009;28;19930;-69
2023/09/19 01:12:17;;;;;;;;;;;;;;;;;;5091318;28;20019;-69
2023/09/19 01:14:44;;;;;;;;;;;;;;;;;;5078327;28;19932;-69
2023/09/19 01:17:11;;;;;;;;;;;;;;;;;;5075433;28;20307;-69
2023/09/19 01:19:38;;;;;;;;;;;;;;;;;;5093952;28;19999;-69
2023/09/19 01:22:06;;;;;;;;;;;;;;;;;;5104695;28;19978;-69
2023/09/19 01:24:36;;;;;;;;;;;;;;;;;;5096366;28;19924;-70
2023/09/19 01:27:03;;;;;;;;;;;;;;;;;;5094728;28;19924;-70
2023/09/19 01:29:32;;;;;;;;;;;;;;;;;;5096359;28;19928;-70
2023/09/19 01:32:01;;;;;;;;;;;;;;;;;;5107791;28;19923;-70
2023/09/19 01:34:28;;;;;;;;;;;;;;;;;;5108099;28;19931;-70
2023/09/19 01:36:55;;;;;;;;;;;;;;;;;;5095199;28;19924;-70
2023/09/19 01:39:23;;;;;;;;;;;;;;;;;;5095410;28;20340;-70
2023/09/19 01:41:50;;;;;;;;;;;;;;;;;;5106336;28;19924;-69
2023/09/19 01:44:17;;;;;;;;;;;;;;;;;;5105626;28;19924;-70
2023/09/19 01:46:47;;;;;;;;;;;;;;;;;;5095374;28;19964;-70
2023/09/19 01:49:14;;;;;;;;;;;;;;;;;;5096308;28;19924;-70
2023/09/19 01:51:41;;;;;;;;;;;;;;;;;;5104903;28;19997;-70
2023/09/19 01:54:08;;;;;;;;;;;;;;;;;;5096662;28;20011;-70
2023/09/19 01:56:35;;;;;;;;;;;;;;;;;;5103510;28;19924;-70
2023/09/19 01:59:03;;;;;;;;;;;;;;;;;;5094576;28;19928;-70
2023/09/19 02:01:30;;;;;;;;;;;;;;;;;;5102558;28;19934;-70
2023/09/19 02:03:57;;;;;;;;;;;;;;;;;;5115061;28;20068;-70
2023/09/19 02:06:25;;;;;;;;;;;;;;;;;;5077698;28;19978;-70
2023/09/19 02:08:52;;;;;;;;;;;;;;;;;;5094556;28;19924;-70
2023/09/19 02:11:19;;;;;;;;;;;;;;;;;;5097068;28;19924;-70
2023/09/19 02:13:46;;;;;;;;;;;;;;;;;;5089092;28;20429;-70
2023/09/19 02:16:13;;;;;;;;;;;;;;;;;;5074958;28;19970;-70
2023/09/19 02:18:40;;;;;;;;;;;;;;;;;;5079615;28;20288;-70
2023/09/19 02:21:09;;;;;;;;;;;;;;;;;;5099900;28;19924;-70
2023/09/19 02:23:36;;;;;;;;;;;;;;;;;;5114976;28;19932;-70
2023/09/19 02:26:03;;;;;;;;;;;;;;;;;;5098959;28;19978;-70
2023/09/19 02:28:31;;;;;;;;;;;;;;;;;;5094035;28;19924;-70
2023/09/19 02:30:58;;;;;;;;;;;;;;;;;;5083416;28;19924;-70
2023/09/19 02:33:25;;;;;;;;;;;;;;;;;;5114977;28;19924;-70
2023/09/19 02:35:52;;;;;;;;;;;;;;;;;;5084662;28;19928;-69
2023/09/19 02:38:24;;;;;;;;;;;;;;;;;;5092372;28;19924;-70
2023/09/19 02:40:51;;;;;;;;;;;;;;;;;;5081314;28;19924;-70
2023/09/19 02:43:19;;;;;;;;;;;;;;;;;;5094173;28;20301;-70
2023/09/19 02:45:49;;;;;;;;;;;;;;;;;;5092163;28;19931;-70
2023/09/19 02:48:16;;;;;;;;;;;;;;;;;;5089397;28;19979;-70
2023/09/19 02:50:44;;;;;;;;;;;;;;;;;;5114276;28;19924;-70
2023/09/19 02:53:12;;;;;;;;;;;;;;;;;;5093333;28;19967;-70
2023/09/19 02:55:40;;;;;;;;;;;;;;;;;;5093827;28;19936;-69
2023/09/19 02:58:07;;;;;;;;;;;;;;;;;;5093819;28;19924;-70
2023/09/19 03:00:35;;;;;;;;;;;;;;;;;;5104724;28;19932;-69
2023/09/19 03:03:03;;;;;;;;;;;;;;;;;;5099611;28;20726;-69
2023/09/19 03:05:30;;;;;;;;;;;;;;;;;;5082880;28;20384;-69
2023/09/19 03:08:00;;;;;;;;;;;;;;;;;;5080588;28;19930;-69
2023/09/19 03:10:27;;;;;;;;;;;;;;;;;;5082813;28;20023;-69
2023/09/19 03:12:54;;;;;;;;;;;;;;;;;;5090477;28;19925;-69
2023/09/19 03:15:21;;;;;;;;;;;;;;;;;;5079378;28;19924;-69
2023/09/19 03:17:48;;;;;;;;;;;;;;;;;;5093018;28;19924;-69
2023/09/19 03:20:17;;;;;;;;;;;;;;;;;;5092911;28;20408;-69
2023/09/19 03:22:44;;;;;;;;;;;;;;;;;;5103749;28;19943;-69
2023/09/19 03:25:11;;;;;;;;;;;;;;;;;;5093958;28;19928;-70
2023/09/19 03:27:38;;;;;;;;;;;;;;;;;;5093156;28;19924;-70
2023/09/19 03:30:08;;;;;;;;;;;;;;;;;;5079975;28;19932;-70
2023/09/19 03:32:35;;;;;;;;;;;;;;;;;;5110670;28;19924;-70
2023/09/19 03:35:05;;;;;;;;;;;;;;;;;;5097334;28;20298;-70
2023/09/19 03:37:32;;;;;;;;;;;;;;;;;;5086402;28;19928;-70
2023/09/19 03:39:59;;;;;;;;;;;;;;;;;;5095344;28;19931;-71
2023/09/19 03:42:26;;;;;;;;;;;;;;;;;;5095834;28;19927;-71
2023/09/19 03:44:54;;;;;;;;;;;;;;;;;;5106664;28;19924;-70
2023/09/19 03:47:21;;;;;;;;;;;;;;;;;;5095683;28;19935;-70
2023/09/19 03:49:49;;;;;;;;;;;;;;;;;;5095332;28;19981;-70
2023/09/19 03:52:16;;;;;;;;;;;;;;;;;;5113143;28;19931;-70
2023/09/19 03:54:44;;;;;;;;;;;;;;;;;;5102846;28;20002;-70
2023/09/19 03:57:12;;;;;;;;;;;;;;;;;;5112981;28;19975;-70
2023/09/19 03:59:42;;;;;;;;;;;;;;;;;;5079625;28;19947;-70
2023/09/19 04:02:11;;;;;;;;;;;;;;;;;;5087567;28;19946;-70
2023/09/19 04:04:38;;;;;;;;;;;;;;;;;;5089632;28;19981;-70
2023/09/19 04:07:05;;;;;;;;;;;;;;;;;;5088446;28;19927;-70
2023/09/19 04:09:32;;;;;;;;;;;;;;;;;;5094415;28;19928;-70
2023/09/19 04:11:59;;;;;;;;;;;;;;;;;;5107208;28;20455;-69
2023/09/19 04:14:27;;;;;;;;;;;;;;;;;;5080914;28;19985;-69
2023/09/19 04:16:54;;;;;;;;;;;;;;;;;;5090497;28;20356;-68
2023/09/19 04:19:22;;;;;;;;;;;;;;;;;;5087606;28;19928;-68
2023/09/19 04:21:49;;;;;;;;;;;;;;;;;;5099213;28;20406;-68
2023/09/19 04:24:19;;;;;;;;;;;;;;;;;;5092133;28;20030;-69
2023/09/19 04:26:46;;;;;;;;;;;;;;;;;;5072284;28;20387;-69
2023/09/19 04:29:14;;;;;;;;;;;;;;;;;;5090627;28;20259;-68
2023/09/19 04:31:43;;;;;;;;;;;;;;;;;;5088920;28;19953;-68
2023/09/19 04:34:10;;;;;;;;;;;;;;;;;;5081872;28;19924;-69
2023/09/19 04:36:37;;;;;;;;;;;;;;;;;;5083459;28;19928;-69
2023/09/19 04:39:07;;;;;;;;;;;;;;;;;;5088840;28;19924;-69
2023/09/19 04:41:34;;;;;;;;;;;;;;;;;;5087163;28;19924;-68
2023/09/19 04:44:01;;;;;;;;;;;;;;;;;;5090572;28;19928;-68
2023/09/19 04:46:28;;;;;;;;;;;;;;;;;;5082693;28;19931;-69
2023/09/19 04:48:55;;;;;;;;;;;;;;;;;;5091161;28;19997;-69
2023/09/19 04:51:23;;;;;;;;;;;;;;;;;;5091623;28;19924;-68
2023/09/19 04:53:50;;;;;;;;;;;;;;;;;;5091789;28;19924;-68
2023/09/19 04:56:17;;;;;;;;;;;;;;;;;;5107385;28;19924;-68
2023/09/19 04:58:44;;;;;;;;;;;;;;;;;;5110828;28;19953;-69
2023/09/19 05:01:12;;;;;;;;;;;;;;;;;;5094177;28;19927;-68
2023/09/19 05:03:39;;;;;;;;;;;;;;;;;;5091572;28;19944;-68
2023/09/19 05:06:06;;;;;;;;;;;;;;;;;;5080911;28;19930;-68
2023/09/19 05:08:33;;;;;;;;;;;;;;;;;;5085503;28;19924;-68
2023/09/19 05:11:00;;;;;;;;;;;;;;;;;;5094498;28;19931;-67
2023/09/19 05:13:27;;;;;;;;;;;;;;;;;;5090672;28;19924;-67
2023/09/19 05:15:54;;;;;;;;;;;;;;;;;;5091161;28;19977;-69
2023/09/19 05:18:22;;;;;;;;;;;;;;;;;;5080544;28;19931;-69
2023/09/19 05:20:49;;;;;;;;;;;;;;;;;;5091142;28;20015;-69
2023/09/19 05:23:16;;;;;;;;;;;;;;;;;;5109123;28;20359;-68
2023/09/19 05:25:43;;;;;;;;;;;;;;;;;;5102776;28;20397;-69
2023/09/19 05:28:12;;;;;;;;;;;;;;;;;;5092010;28;19971;-69
2023/09/19 05:30:39;;;;;;;;;;;;;;;;;;5093482;28;19962;-69
2023/09/19 05:33:07;;;;;;;;;;;;;;;;;;5112040;28;19924;-69
2023/09/19 05:35:34;;;;;;;;;;;;;;;;;;5092509;28;20283;-68
2023/09/19 05:38:01;;;;;;;;;;;;;;;;;;5071106;28;19928;-69
2023/09/19 05:40:28;;;;;;;;;;;;;;;;;;5083630;28;19927;-69
2023/09/19 05:42:55;;;;;;;;;;;;;;;;;;5079353;28;19924;-68
2023/09/19 05:45:23;;;;;;;;;;;;;;;;;;5091184;28;20345;-68
2023/09/19 05:47:51;;;;;;;;;;;;;;;;;;5079869;28;20014;-68
2023/09/19 05:50:19;;;;;;;;;;;;;;;;;;5077327;28;19928;-60
2023/09/19 05:52:47;;;;;;;;;;;;;;;;;;5083800;28;20491;-69
2023/09/19 05:55:14;;;;;;;;;;;;;;;;;;5082167;28;20006;-69
2023/09/19 05:57:42;;;;;;;;;;;;;;;;;;5081754;28;19935;-69
2023/09/19 06:00:11;;;;;;;;;;;;;;;;;;5081741;28;19932;-68
2023/09/19 06:02:38;;;;;;;;;;;;;;;;;;5082852;28;19928;-67
2023/09/19 06:05:06;;;;;;;;;;;;;;;;;;5076785;28;20310;-67
2023/09/19 06:07:36;;;;;;;;;;;;;;;;;;5073757;28;19928;-67
2023/09/19 06:10:05;;;;;;;;;;;;;;;;;;5078773;28;19935;-66
2023/09/19 06:12:37;;;;;;;;;;;;;;;;;;5077186;28;19938;-67
2023/09/19 06:15:05;;;;;;;;;;;;;;;;;;5078261;28;19932;-67
2023/09/19 06:17:32;;;;;;;;;;;;;;;;;;5085133;28;19936;-68
2023/09/19 06:19:59;;;;;;;;;;;;;;;;;;5079561;28;19928;-68
2023/09/19 06:22:26;;;;;;;;;;;;;;;;;;5080739;28;19928;-70
2023/09/19 06:24:53;;;;;;;;;;;;;;;;;;5079569;28;19925;-70
2023/09/19 06:27:21;;;;;;;;;;;;;;;;;;5088485;28;20379;-70
2023/09/19 06:29:48;;;;;;;;;;;;;;;;;;5092280;28;20276;-68
2023/09/19 06:32:15;;;;;;;;;;;;;;;;;;5089701;28;19924;-68
2023/09/19 06:34:43;;;;;;;;;;;;;;;;;;5077569;28;19933;-69
2023/09/19 06:37:10;;;;;;;;;;;;;;;;;;5093597;28;19975;-68
2023/09/19 06:39:37;;;;;;;;;;;;;;;;;;5086540;28;19931;-67
2023/09/19 06:42:05;;;;;;;;;;;;;;;;;;5089680;28;19924;-68
2023/09/19 06:44:32;;;;;;;;;;;;;;;;;;5081844;28;19932;-68
2023/09/19 06:46:59;;;;;;;;;;;;;;;;;;5090688;28;19924;-69
2023/09/19 06:49:26;;;;;;;;;;;;;;;;;;5089613;28;19971;-68
2023/09/19 06:51:54;;;;;;;;;;;;;;;;;;5087355;28;19924;-68
2023/09/19 06:54:21;;;;;;;;;;;;;;;;;;5093208;28;19924;-69
2023/09/19 06:56:48;;;;;;;;;;;;;;;;;;5089233;28;19995;-68
2023/09/19 06:59:16;;;;;;;;;;;;;;;;;;5085430;28;20268;-69
2023/09/19 07:01:44;;;;;;;;;;;;;;;;;;5085439;28;20314;-68
2023/09/19 07:04:12;;;;;;;;;;;;;;;;;;5088519;28;19931;-68
2023/09/19 07:06:40;;;;;;;;;;;;;;;;;;5089760;28;19928;-67
2023/09/19 07:09:08;;;;;;;;;;;;;;;;;;5090051;28;19987;-67
2023/09/19 07:11:35;;;;;;;;;;;;;;;;;;5089060;28;20405;-69
2023/09/19 07:14:03;;;;;;;;;;;;;;;;;;5091658;28;19927;-67
2023/09/19 07:16:30;;;;;;;;;;;;;;;;;;5092781;28;20366;-68
2023/09/19 07:18:58;;;;;;;;;;;;;;;;;;5093992;28;20022;-68
2023/09/19 07:21:25;;;;;;;;;;;;;;;;;;5091151;28;19932;-68
2023/09/19 07:23:52;;;;;;;;;;;;;;;;;;5088361;28;19976;-69
2023/09/19 07:26:19;;;;;;;;;;;;;;;;;;5093083;28;20387;-68
2023/09/19 07:28:46;;;;;;;;;;;;;;;;;;5093962;28;19935;-66
2023/09/19 07:31:14;;;;;;;;;;;;;;;;;;5093197;28;19928;-69
2023/09/19 07:33:41;;;;;;;;;;;;;;;;;;5081921;28;19967;-69
2023/09/19 07:36:08;;;;;;;;;;;;;;;;;;5093895;28;19928;-69
2023/09/19 07:38:35;;;;;;;;;;;;;;;;;;5094969;28;19932;-69
2023/09/19 07:41:03;;;;;;;;;;;;;;;;;;5093735;28;20298;-69
2023/09/19 07:43:30;;;;;;;;;;;;;;;;;;5093347;28;20434;-69
2023/09/19 07:46:00;;;;;;;;;;;;;;;;;;5093700;28;19931;-69
2023/09/19 07:48:27;;;;;;;;;;;;;;;;;;5085925;28;20063;-68
2023/09/19 07:50:54;;;;;;;;;;;;;;;;;;5086441;28;19952;-69
2023/09/19 07:53:22;;;;;;;;;;;;;;;;;;5076454;28;19924;-69
2023/09/19 07:55:49;;;;;;;;;;;;;;;;;;5077108;28;19968;-68
2023/09/19 07:58:16;;;;;;;;;;;;;;;;;;5088545;28;21656;-69
2023/09/19 08:00:43;;;;;;;;;;;;;;;;;;5084442;28;20367;-69
2023/09/19 08:03:14;;;;;;;;;;;;;;;;;;5073321;28;19974;-68
2023/09/19 08:05:43;;;;;;;;;;;;;;;;;;5088398;28;19924;-69
2023/09/19 08:08:10;;;;;;;;;;;;;;;;;;5091793;28;19924;-69
2023/09/19 08:10:39;;;;;;;;;;;;;;;;;;5090828;28;19924;-69
2023/09/19 08:13:11;;;;;;;;;;;;;;;;;;5089571;28;20027;-69
2023/09/19 08:15:38;;;;;;;;;;;;;;;;;;5087591;28;19931;-68
2023/09/19 08:18:05;;;;;;;;;;;;;;;;;;5085674;28;19924;-69
2023/09/19 08:20:32;;;;;;;;;;;;;;;;;;5085304;28;19928;-69
2023/09/19 08:22:59;;;;;;;;;;;;;;;;;;5085667;28;20385;-68
2023/09/19 08:25:26;;;;;;;;;;;;;;;;;;5090879;28;19924;-69
2023/09/19 08:27:53;;;;;;;;;;;;;;;;;;5092389;28;20424;-63
2023/09/19 08:30:23;;;;;;;;;;;;;;;;;;5091276;28;19973;-66
2023/09/19 08:32:50;;;;;;;;;;;;;;;;;;5089860;28;20379;-67
2023/09/19 08:35:17;;;;;;;;;;;;;;;;;;5091463;28;19977;-67
2023/09/19 08:37:46;;;;;;;;;;;;;;;;;;5084021;28;20436;-67
2023/09/19 08:40:13;;;;;;;;;;;;;;;;;;5086121;28;20031;-67
2023/09/19 08:42:40;;;;;;;;;;;;;;;;;;5084168;28;19924;-67
2023/09/19 08:45:07;;;;;;;;;;;;;;;;;;5087150;28;20323;-67
2023/09/19 08:47:35;;;;;;;;;;;;;;;;;;5086892;28;19924;-68
2023/09/19 08:50:02;;;;;;;;;;;;;;;;;;5083264;28;19925;-66
2023/09/19 08:52:29;;;;;;;;;;;;;;;;;;5075246;28;19924;-69
2023/09/19 08:54:56;;;;;;;;;;;;;;;;;;5074616;28;19924;-69
2023/09/19 08:57:23;;;;;;;;;;;;;;;;;;5092061;28;19989;-70
2023/09/19 08:59:50;;;;;;;;;;;;;;;;;;5088607;28;19931;-70
2023/09/19 09:02:18;;;;;;;;;;;;;;;;;;5073080;28;20033;-68
2023/09/19 09:04:45;;;;;;;;;;;;;;;;;;5075216;28;19924;-67
2023/09/19 09:07:13;;;;;;;;;;;;;;;;;;5071658;28;19978;-67
2023/09/19 09:09:42;;;;;;;;;;;;;;;;;;5082588;28;19975;-67
2023/09/19 09:12:09;;;;;;;;;;;;;;;;;;5085591;28;19967;-67
2023/09/19 09:14:36;;;;;;;;;;;;;;;;;;5088013;28;19931;-67
2023/09/19 09:17:03;;;;;;;;;;;;;;;;;;5083900;28;19977;-67
2023/09/19 09:19:31;;;;;;;;;;;;;;;;;;5091478;28;19940;-67
2023/09/19 09:21:59;;;;;;;;;;;;;;;;;;5092338;28;19924;-68
2023/09/19 09:24:26;;;;;;;;;;;;;;;;;;5089227;28;19943;-67
2023/09/19 09:26:53;;;;;;;;;;;;;;;;;;5086047;28;19926;-67
2023/09/19 09:29:20;;;;;;;;;;;;;;;;;;5081900;28;19968;-68
2023/09/19 09:31:48;;;;;;;;;;;;;;;;;;5079230;28;19924;-66
2023/09/19 09:34:15;;;;;;;;;;;;;;;;;;5093618;28;19924;-68
2023/09/19 09:36:42;;;;;;;;;;;;;;;;;;5095678;28;19924;-68
2023/09/19 09:39:18;;;;;;;;;;;;;;;;;;5095820;28;19924;-68
2023/09/19 09:41:45;;;;;;;;;;;;;;;;;;5095940;28;19924;-69
2023/09/19 09:44:13;;;;;;;;;;;;;;;;;;5094971;28;19928;-68
2023/09/19 09:49:39;;;;;;;;;;;;;;;;;;5080237;28;20280;-68
2023/09/19 09:52:07;;;;;;;;;;;;;;;;;;5092510;28;20327;-67
2023/09/19 09:54:36;;;;;;;;;;;;;;;;;;5089099;28;19960;-68
2023/09/19 09:57:13;;;;;;;;;;;;;;;;;;5090923;28;19932;-68
2023/09/19 09:59:40;;;;;;;;;;;;;;;;;;5085899;28;20294;-68
2023/09/19 10:02:07;;;;;;;;;;;;;;;;;;5079890;28;20437;-68
2023/09/19 10:04:36;;;;;;;;;;;;;;;;;;5094680;28;19971;-68
2023/09/19 10:07:06;;;;;;;;;;;;;;;;;;5088619;28;19931;-67
2023/09/19 10:09:36;;;;;;;;;;;;;;;;;;5091462;28;19931;-67
2023/09/19 10:12:03;;;;;;;;;;;;;;;;;;5082973;28;20395;-68
2023/09/19 10:14:31;;;;;;;;;;;;;;;;;;5084646;28;19927;-68
2023/09/19 10:17:03;;;;;;;;;;;;;;;;;;5088414;28;20020;-67
2023/09/19 10:19:33;;;;;;;;;;;;;;;;;;5107734;22;19924;-68
2023/09/19 10:22:00;;;;;;;;;;;;;;;;;;5067569;28;19947;-68
2023/09/19 10:24:27;;;;;;;;;;;;;;;;;;5063267;28;19928;-68
2023/09/19 10:26:54;;;;;;;;;;;;;;;;;;5065924;28;19924;-68
2023/09/19 10:29:21;;;;;;;;;;;;;;;;;;5060498;28;19932;-68
2023/09/19 10:31:48;;;;;;;;;;;;;;;;;;5068121;28;19925;-69
2023/09/19 10:34:15;;;;;;;;;;;;;;;;;;5066163;28;20517;-68
2023/09/19 10:36:42;;;;;;;;;;;;;;;;;;5066827;28;19978;-70
2023/09/19 10:39:12;;;;;;;;;;;;;;;;;;5068903;28;19948;-68
2023/09/19 10:41:39;;;;;;;;;;;;;;;;;;5064245;28;19925;-68
2023/09/19 10:44:06;;;;;;;;;;;;;;;;;;5068498;28;19924;-68
2023/09/19 10:46:33;;;;;;;;;;;;;;;;;;5066640;28;20406;-68
2023/09/19 10:49:00;;;;;;;;;;;;;;;;;;5067070;28;19978;-68
2023/09/19 10:51:28;;;;;;;;;;;;;;;;;;5070969;28;19924;-68
2023/09/19 10:53:55;;;;;;;;;;;;;;;;;;5065954;28;19932;-67
2023/09/19 10:56:22;;;;;;;;;;;;;;;;;;5064644;28;20378;-68
2023/09/19 10:58:49;;;;;;;;;;;;;;;;;;5065673;28;20042;-68
2023/09/19 11:01:18;;;;;;;;;;;;;;;;;;5070568;28;19929;-69
2023/09/19 11:03:45;;;;;;;;;;;;;;;;;;5056832;28;19925;-69
2023/09/19 11:06:13;;;;;;;;;;;;;;;;;;5060908;28;19925;-68
2023/09/19 11:08:40;;;;;;;;;;;;;;;;;;5062546;28;19936;-69
2023/09/19 11:11:09;;;;;;;;;;;;;;;;;;5072360;28;19925;-68
2023/09/19 11:13:38;;;;;;;;;;;;;;;;;;5056473;28;19983;-68
2023/09/19 11:16:05;;;;;;;;;;;;;;;;;;5061239;28;19931;-68
2023/09/19 11:18:32;;;;;;;;;;;;;;;;;;5058557;28;19936;-69
2023/09/19 11:20:59;;;;;;;;;;;;;;;;;;5063232;28;19985;-69
2023/09/19 11:23:30;;;;;;;;;;;;;;;;;;5071807;28;19975;-69
2023/09/19 11:25:57;;;;;;;;;;;;;;;;;;5068952;28;20411;-69
2023/09/19 11:28:23;;;;;;;;;;;;;;;;;;5061665;28;19956;-70
2023/09/19 11:30:53;;;;;;;;;;;;;;;;;;5069979;28;19925;-68
2023/09/19 11:33:23;;;;;;;;;;;;;;;;;;5075516;28;19924;-68
2023/09/19 11:35:50;;;;;;;;;;;;;;;;;;5062009;28;20366;-69
2023/09/19 11:38:17;;;;;;;;;;;;;;;;;;5073757;28;19924;-68
2023/09/19 11:40:43;;;;;;;;;;;;;;;;;;5074237;28;19925;-68
2023/09/19 11:43:10;;;;;;;;;;;;;;;;;;5060567;28;20028;-68
2023/09/19 11:45:37;;;;;;;;;;;;;;;;;;5063044;28;20349;-69
2023/09/19 11:48:04;;;;;;;;;;;;;;;;;;5055773;28;19978;-69
2023/09/19 11:50:32;;;;;;;;;;;;;;;;;;5063195;28;19994;-69
2023/09/19 11:52:59;;;;;;;;;;;;;;;;;;5059234;28;20134;-68
2023/09/19 11:55:27;;;;;;;;;;;;;;;;;;5060683;28;20431;-68
2023/09/19 11:57:54;;;;;;;;;;;;;;;;;;5057334;28;19925;-69
2023/09/19 12:00:21;;;;;;;;;;;;;;;;;;5064198;28;19931;-68
2023/09/19 12:02:48;;;;;;;;;;;;;;;;;;5060517;28;19963;-68
2023/09/19 12:05:16;;;;;;;;;;;;;;;;;;5061397;28;19933;-68
2023/09/19 12:07:44;;;;;;;;;;;;;;;;;;5064363;28;19924;-68
2023/09/19 12:10:14;;;;;;;;;;;;;;;;;;5063335;28;19925;-68
2023/09/19 12:12:42;;;;;;;;;;;;;;;;;;5059206;28;19925;-68
2023/09/19 12:15:09;;;;;;;;;;;;;;;;;;5062306;28;20302;-68
2023/09/19 12:17:36;;;;;;;;;;;;;;;;;;5055985;28;19982;-68
2023/09/19 12:20:12;;;;;;;;;;;;;;;;;;5059764;28;19924;-68
2023/09/19 12:22:39;;;;;;;;;;;;;;;;;;5061030;28;20026;-68
2023/09/19 12:25:06;;;;;;;;;;;;;;;;;;5059378;28;19925;-68
2023/09/19 12:27:34;;;;;;;;;;;;;;;;;;5059710;28;19924;-68
2023/09/19 12:30:05;;;;;;;;;;;;;;;;;;5066799;28;19975;-68
2023/09/19 12:32:34;;;;;;;;;;;;;;;;;;5057055;28;19999;-68
2023/09/19 12:35:07;;;;;;;;;;;;;;;;;;5061699;28;20415;-68
2023/09/19 12:37:36;;;;;;;;;;;;;;;;;;5055195;28;19925;-68
2023/09/19 12:40:14;;;;;;;;;;;;;;;;;;5053302;28;20264;-68
2023/09/19 12:42:41;;;;;;;;;;;;;;;;;;5053163;28;20110;-67
2023/09/19 12:45:09;;;;;;;;;;;;;;;;;;5059258;28;19987;-68
2023/09/19 12:47:36;;;;;;;;;;;;;;;;;;5052742;28;19924;-68
2023/09/19 12:50:05;;;;;;;;;;;;;;;;;;5055455;28;20004;-68
2023/09/19 12:52:32;;;;;;;;;;;;;;;;;;5059695;28;19959;-67
2023/09/19 12:55:01;;;;;;;;;;;;;;;;;;5059858;28;19925;-67
2023/09/19 12:57:28;;;;;;;;;;;;;;;;;;5054929;28;20318;-68
2023/09/19 12:59:55;;;;;;;;;;;;;;;;;;5051357;28;20391;-68
2023/09/19 13:02:24;;;;;;;;;;;;;;;;;;5056474;28;20392;-67
2023/09/19 13:04:50;;;;;;;;;;;;;;;;;;5060927;28;19932;-67
2023/09/19 13:07:18;;;;;;;;;;;;;;;;;;5053232;28;19975;-68
2023/09/19 13:09:45;;;;;;;;;;;;;;;;;;5052202;28;19924;-68
2023/09/19 13:12:12;;;;;;;;;;;;;;;;;;5054448;28;20424;-68
2023/09/19 13:14:40;;;;;;;;;;;;;;;;;;5071448;28;20385;-67
2023/09/19 13:17:15;;;;;;;;;;;;;;;;;;5069394;28;20435;-67
2023/09/19 13:19:43;;;;;;;;;;;;;;;;;;5058369;28;20507;-68
2023/09/19 13:22:10;;;;;;;;;;;;;;;;;;5051241;28;20400;-68
2023/09/19 13:24:40;;;;;;;;;;;;;;;;;;5051572;28;19986;-68
2023/09/19 13:27:07;;;;;;;;;;;;;;;;;;5052793;28;19935;-68
2023/09/19 13:29:34;;;;;;;;;;;;;;;;;;5059071;28;19935;-69
2023/09/19 13:32:02;;;;;;;;;;;;;;;;;;5060357;28;19925;-68
2023/09/19 13:34:29;;;;;;;;;;;;;;;;;;5069958;28;19924;-69
2023/09/19 13:36:58;;;;;;;;;;;;;;;;;;5066744;28;19925;-68
2023/09/19 13:39:25;;;;;;;;;;;;;;;;;;5051287;28;19925;-68
2023/09/19 13:41:52;;;;;;;;;;;;;;;;;;5051980;28;19924;-69
2023/09/19 13:44:19;;;;;;;;;;;;;;;;;;5052478;28;19924;-69
2023/09/19 13:46:46;;;;;;;;;;;;;;;;;;5051203;28;19925;-68
2023/09/19 13:49:13;;;;;;;;;;;;;;;;;;5055154;28;19978;-68
2023/09/19 13:51:43;;;;;;;;;;;;;;;;;;5056191;28;20418;-68
2023/09/19 13:54:12;;;;;;;;;;;;;;;;;;5071842;28;19928;-68
2023/09/19 13:56:39;;;;;;;;;;;;;;;;;;5071459;28;19974;-68
2023/09/19 13:59:06;;;;;;;;;;;;;;;;;;5071748;28;19924;-68
2023/09/19 14:01:33;;;;;;;;;;;;;;;;;;5086982;28;19970;-68
2023/09/19 14:04:00;;;;;;;;;;;;;;;;;;5088129;28;19928;-68
2023/09/19 14:06:27;;;;;;;;;;;;;;;;;;5056282;28;19925;-69
2023/09/19 14:08:55;;;;;;;;;;;;;;;;;;5052993;28;19977;-68
2023/09/19 14:11:22;;;;;;;;;;;;;;;;;;5065202;28;20306;-69
2023/09/19 14:13:49;;;;;;;;;;;;;;;;;;5066124;28;19932;-69
2023/09/19 14:16:16;;;;;;;;;;;;;;;;;;5065074;28;20376;-68
2023/09/19 14:18:43;;;;;;;;;;;;;;;;;;5050527;28;19925;-68
2023/09/19 14:21:11;;;;;;;;;;;;;;;;;;5054024;28;20007;-69
2023/09/19 14:23:38;;;;;;;;;;;;;;;;;;5060157;28;20043;-68
2023/09/19 14:26:06;;;;;;;;;;;;;;;;;;5062967;28;19925;-69
2023/09/19 14:28:34;;;;;;;;;;;;;;;;;;5070818;28;20163;-68
2023/09/19 14:31:01;;;;;;;;;;;;;;;;;;5067773;28;19936;-67
2023/09/19 14:33:29;;;;;;;;;;;;;;;;;;5057653;28;19931;-69
2023/09/19 14:35:57;;;;;;;;;;;;;;;;;;5059971;28;19924;-69
2023/09/19 14:38:24;;;;;;;;;;;;;;;;;;5063330;28;19924;-68
2023/09/19 14:40:52;;;;;;;;;;;;;;;;;;5062695;28;20118;-69
2023/09/19 14:43:19;;;;;;;;;;;;;;;;;;5077918;28;20340;-69
2023/09/19 14:45:46;;;;;;;;;;;;;;;;;;5055726;28;19970;-67
2023/09/19 14:48:13;;;;;;;;;;;;;;;;;;5073575;28;20346;-68
2023/09/19 14:50:40;;;;;;;;;;;;;;;;;;5055899;28;19924;-68
2023/09/19 14:53:10;;;;;;;;;;;;;;;;;;5063293;28;19925;-68
2023/09/19 14:55:41;;;;;;;;;;;;;;;;;;5062047;28;19931;-69
2023/09/19 14:58:09;;;;;;;;;;;;;;;;;;5058971;28;19933;-67
2023/09/19 15:00:36;;;;;;;;;;;;;;;;;;5060261;28;19979;-68
2023/09/19 15:03:03;;;;;;;;;;;;;;;;;;5057644;28;19972;-68
2023/09/19 15:05:31;;;;;;;;;;;;;;;;;;5061149;28;19994;-69
2023/09/19 15:07:58;;;;;;;;;;;;;;;;;;5059854;28;20461;-68
2023/09/19 15:10:25;;;;;;;;;;;;;;;;;;5062245;28;20001;-69
2023/09/19 15:12:52;;;;;;;;;;;;;;;;;;5063713;28;19928;-67
2023/09/19 15:15:20;;;;;;;;;;;;;;;;;;5058579;28;20271;-70
2023/09/19 15:17:47;;;;;;;;;;;;;;;;;;5058251;28;19937;-67
2023/09/19 15:20:14;;;;;;;;;;;;;;;;;;5069788;28;19931;-68
2023/09/19 15:22:42;;;;;;;;;;;;;;;;;;5065706;28;19978;-66
2023/09/19 15:25:09;;;;;;;;;;;;;;;;;;5065258;28;19925;-67
2023/09/19 15:27:36;;;;;;;;;;;;;;;;;;5063931;28;19925;-67
2023/09/19 15:30:04;;;;;;;;;;;;;;;;;;5068747;28;20015;-66
2023/09/19 15:32:31;;;;;;;;;;;;;;;;;;5055897;28;19936;-68
2023/09/19 15:34:58;;;;;;;;;;;;;;;;;;5055039;28;19988;-68
2023/09/19 15:37:26;;;;;;;;;;;;;;;;;;5071810;28;19965;-68
2023/09/19 15:39:53;;;;;;;;;;;;;;;;;;5065620;28;19964;-69
2023/09/19 15:42:20;;;;;;;;;;;;;;;;;;5061932;28;20457;-68
2023/09/19 15:44:49;;;;;;;;;;;;;;;;;;5052203;28;19924;-69
2023/09/19 15:47:16;;;;;;;;;;;;;;;;;;5053660;28;20369;-69
2023/09/19 15:49:44;;;;;;;;;;;;;;;;;;5058419;28;19960;-71
2023/09/19 15:52:11;;;;;;;;;;;;;;;;;;5058546;28;19933;-70
2023/09/19 15:54:42;;;;;;;;;;;;;;;;;;5066477;28;19960;-69
2023/09/19 15:57:12;;;;;;;;;;;;;;;;;;5057639;28;20486;-70
2023/09/19 15:59:39;;;;;;;;;;;;;;;;;;5070418;28;19928;-70
2023/09/19 16:02:06;;;;;;;;;;;;;;;;;;5071908;28;19982;-70
2023/09/19 16:04:34;;;;;;;;;;;;;;;;;;5072470;28;19975;-69
2023/09/19 16:07:02;;;;;;;;;;;;;;;;;;5060916;28;20391;-70
2023/09/19 16:09:29;;;;;;;;;;;;;;;;;;5052776;28;20027;-70
2023/09/19 16:11:56;;;;;;;;;;;;;;;;;;5053698;28;19979;-70
2023/09/19 16:14:24;;;;;;;;;;;;;;;;;;5065833;28;19970;-70
2023/09/19 16:16:51;;;;;;;;;;;;;;;;;;5071118;28;19924;-70
2023/09/19 16:19:18;;;;;;;;;;;;;;;;;;5072499;28;19978;-70
2023/09/19 16:21:45;;;;;;;;;;;;;;;;;;5070153;28;19924;-70
2023/09/19 16:24:12;;;;;;;;;;;;;;;;;;5056939;28;19931;-69
2023/09/19 16:26:39;;;;;;;;;;;;;;;;;;5053965;28;19928;-70
2023/09/19 16:29:09;;;;;;;;;;;;;;;;;;5062357;28;20560;-70
2023/09/19 16:31:36;;;;;;;;;;;;;;;;;;5053692;28;20449;-70
2023/09/19 16:34:04;;;;;;;;;;;;;;;;;;5053415;28;20403;-70
2023/09/19 16:36:31;;;;;;;;;;;;;;;;;;5053395;28;20070;-70
2023/09/19 16:38:59;;;;;;;;;;;;;;;;;;5059712;28;19931;-70
2023/09/19 16:41:26;;;;;;;;;;;;;;;;;;5072109;28;19924;-70
2023/09/19 16:43:53;;;;;;;;;;;;;;;;;;5060358;28;19932;-69
2023/09/19 16:46:20;;;;;;;;;;;;;;;;;;5065056;28;20350;-70
2023/09/19 16:48:48;;;;;;;;;;;;;;;;;;5072139;28;19924;-70
2023/09/19 16:51:16;;;;;;;;;;;;;;;;;;5058252;28;19924;-70